SKSP

Gustavo Rojas Pinilla International Airport

San Andrés, Colombia
TAF SKSP 181700Z 1818/1918 07014KT 9999 FEW018 TX32/1819Z TN26/1911Z
Issued Valid From Valid To
Jan-18 @ 17:00 UTC
(3 hours ago)
Jan-18 @ 18:00 UTC
(2 hours ago)
Jan-19 @ 18:00 UTC
(in 22 hours)
Jan-18 @ 18:00 to Jan-19 @ 18:00
TAF SKSP 181700Z 1818/1918 07014KT 9999 FEW018 TX32/1819Z TN26/1911Z
Wind Visibility Clouds
70° at 14 knots 10,000+ meters
  • Few at 1,800' AGL
TAF SKSP 181700Z 1818/1918 07014KT 9999 FEW018 TX32/1819Z TN26/1911Z
Issued Jan-18 @ 17:00 UTC
(3 hours ago)
Valid From Jan-18 @ 18:00 UTC
(2 hours ago)
Valid To Jan-19 @ 18:00 UTC
(in 22 hours)
Jan-18 @ 18:00 - Jan-19 @ 18:00
Wind Visibility
70° at 14 knots 10,000+ meters
Clouds
  • Few at 1,800' AGL